Time;durP1;ratioP1;P1;durP2;ratioP2;P2;SDS_P1;SDS_P2;PMS_P1;PMS_P2;Temp;Humidity;BMP_temperature;BMP_pressure;BME280_temperature;BME280_humidity;BME280_pressure;Samples;Min_cycle;Max_cycle;Signal;HPM_P1;HPM_P2
2021/06/04 00:01:48;;;;;;;22.70;18.98;;;20.70;86.30;;;;;;5058167;28;20055;-79
2021/06/04 00:04:14;;;;;;;28.98;19.65;;;20.70;86.80;;;;;;5058012;28;20044;-79
2021/06/04 00:06:40;;;;;;;22.15;18.45;;;20.70;86.90;;;;;;5058316;28;20021;-79
2021/06/04 00:09:08;;;;;;;20.90;17.65;;;20.60;87.20;;;;;;5058154;28;20032;-79
2021/06/04 00:11:41;;;;;;;21.20;18.17;;;20.60;87.50;;;;;;5059221;28;20479;-79
2021/06/04 00:14:14;;;;;;;24.05;18.88;;;20.50;87.70;;;;;;5059251;28;20060;-79
2021/06/04 00:16:46;;;;;;;24.13;20.73;;;20.50;87.90;;;;;;5058190;28;20095;-78
2021/06/04 00:19:15;;;;;;;27.85;21.05;;;20.40;88.10;;;;;;5057725;28;20060;-78
2021/06/04 00:21:45;;;;;;;26.63;21.70;;;20.40;88.40;;;;;;5058210;28;20025;-79
2021/06/04 00:24:13;;;;;;;25.67;21.08;;;20.30;88.50;;;;;;5055954;28;20029;-78
2021/06/04 00:26:41;;;;;;;24.30;21.42;;;20.30;89.20;;;;;;5054886;28;20037;-78
2021/06/04 00:29:07;;;;;;;24.55;20.52;;;20.20;88.70;;;;;;5054866;28;20017;-79
2021/06/04 00:31:34;;;;;;;27.73;22.27;;;20.20;88.80;;;;;;5054742;28;20029;-78
2021/06/04 00:34:00;;;;;;;28.73;23.60;;;20.20;88.90;;;;;;5054702;28;20451;-79
2021/06/04 00:36:26;;;;;;;29.33;22.52;;;20.20;88.90;;;;;;5054676;28;20095;-78
2021/06/04 00:38:56;;;;;;;30.27;22.45;;;20.10;88.70;;;;;;5054509;28;20049;-78
2021/06/04 00:41:36;;;;;;;27.15;22.25;;;20.10;88.70;;;;;;5055701;28;20029;-78
2021/06/04 00:44:03;;;;;;;25.65;21.10;;;20.00;88.70;;;;;;5055457;28;20032;-79
2021/06/04 00:46:29;;;;;;;32.28;23.45;;;20.00;88.70;;;;;;5055507;28;20056;-78
2021/06/04 00:48:55;;;;;;;27.25;23.45;;;19.90;88.60;;;;;;5054276;28;20017;-79
2021/06/04 00:51:28;;;;;;;28.92;21.58;;;20.00;88.70;;;;;;5055441;28;20026;-78
2021/06/04 00:53:55;;;;;;;29.40;23.00;;;19.90;88.80;;;;;;5054139;28;20500;-78
2021/06/04 00:56:24;;;;;;;29.95;23.27;;;19.90;88.90;;;;;;5053996;28;20480;-78
2021/06/04 00:58:50;;;;;;;27.98;22.90;;;19.90;89.00;;;;;;5054101;28;20098;-78
2021/06/04 01:01:20;;;;;;;31.00;23.67;;;19.80;88.90;;;;;;5054074;28;20488;-78
2021/06/04 01:03:54;;;;;;;28.50;21.90;;;19.90;89.20;;;;;;5055203;28;20033;-78
2021/06/04 01:06:37;;;;;;;29.02;22.27;;;19.90;89.70;;;;;;5053872;28;20022;-79
2021/06/04 01:09:22;;;;;;;28.88;23.17;;;19.90;89.10;;;;;;5053970;28;20029;-79
2021/06/04 01:11:57;;;;;;;31.55;22.58;;;19.90;89.10;;;;;;5054171;28;20097;-79
2021/06/04 01:14:34;;;;;;;31.98;24.85;;;19.80;89.00;;;;;;5053749;28;20082;-79
2021/06/04 01:17:15;;;;;;;32.13;25.88;;;19.80;89.00;;;;;;5053697;28;20551;-79
2021/06/04 01:19:57;;;;;;;34.75;27.10;;;19.80;89.00;;;;;;5068467;28;20032;-79
2021/06/04 01:22:38;;;;;;;33.83;26.13;;;19.80;88.90;;;;;;5073595;28;20024;-79
2021/06/04 01:25:32;;;;;;;35.95;26.55;;;19.80;89.10;;;;;;5073575;28;20025;-79
2021/06/04 01:28:03;;;;;;;31.95;25.80;;;19.80;89.20;;;;;;5073624;28;20031;-79
2021/06/04 01:30:55;;;;;;;37.83;27.85;;;19.80;89.20;;;;;;5073694;28;20036;-79
2021/06/04 01:33:26;;;;;;;37.60;27.38;;;19.80;89.10;;;;;;5072064;28;20036;-79
2021/06/04 01:35:55;;;;;;;34.63;26.42;;;19.70;89.10;;;;;;5073211;28;20049;-79
2021/06/04 01:38:27;;;;;;;34.83;26.55;;;19.70;89.20;;;;;;5073247;28;20106;-79
2021/06/04 01:40:56;;;;;;;38.47;29.33;;;19.70;89.30;;;;;;5073366;28;20434;-79
2021/06/04 01:43:46;;;;;;;37.55;29.20;;;19.70;89.30;;;;;;5073282;28;20431;-79
2021/06/04 01:46:26;;;;;;;38.83;29.85;;;19.60;89.40;;;;;;5072995;28;20036;-79
2021/06/04 01:48:53;;;;;;;45.20;32.30;;;19.60;89.50;;;;;;5074581;28;20023;-79
2021/06/04 01:51:24;;;;;;;39.55;31.63;;;19.60;89.60;;;;;;5073258;28;20112;-79
2021/06/04 01:53:57;;;;;;;42.15;33.05;;;19.50;89.80;;;;;;5072992;28;20035;-79
2021/06/04 01:56:46;;;;;;;41.95;30.98;;;19.40;90.00;;;;;;5073101;28;20020;-79
2021/06/04 01:59:23;;;;;;;44.92;33.42;;;19.40;90.00;;;;;;5074228;28;20392;-79
2021/06/04 02:01:51;;;;;;;45.55;33.20;;;19.30;90.00;;;;;;5074122;28;20384;-78
2021/06/04 02:04:33;;;;;;;42.55;33.17;;;19.30;90.00;;;;;;5073913;28;20031;-78
2021/06/04 02:07:00;;;;;;;44.45;32.65;;;19.20;90.00;;;;;;5072845;28;20024;-78
2021/06/04 02:09:27;;;;;;;45.13;32.97;;;19.20;90.00;;;;;;5072601;28;20028;-79
2021/06/04 02:11:55;;;;;;;42.80;32.15;;;19.20;90.00;;;;;;5072676;28;20542;-79
2021/06/04 02:14:29;;;;;;;45.00;34.35;;;19.20;90.00;;;;;;5072739;28;20028;-78
2021/06/04 02:17:16;;;;;;;45.28;33.70;;;19.10;90.00;;;;;;5074059;28;20028;-78
2021/06/04 02:20:10;;;;;;;45.33;35.03;;;19.10;90.10;;;;;;5073975;28;20029;-78
2021/06/04 02:23:01;;;;;;;47.35;35.05;;;19.00;90.10;;;;;;5072458;28;20020;-78
2021/06/04 02:25:47;;;;;;;47.22;35.20;;;19.00;90.10;;;;;;5072431;28;20025;-79
2021/06/04 02:28:35;;;;;;;48.63;33.88;;;19.00;90.20;;;;;;5072540;28;20024;-80
2021/06/04 02:31:14;;;;;;;53.30;37.13;;;19.00;90.30;;;;;;5072452;28;20023;-79
2021/06/04 02:33:54;;;;;;;54.97;37.85;;;18.90;90.30;;;;;;5072370;28;20020;-78
2021/06/04 02:36:25;;;;;;;51.88;37.20;;;18.90;90.40;;;;;;5073661;28;20055;-78
2021/06/04 02:38:56;;;;;;;52.22;37.78;;;18.80;90.40;;;;;;5072126;28;20076;-78
2021/06/04 02:41:32;;;;;;;58.15;39.35;;;18.80;90.40;;;;;;5072127;28;20028;-79
2021/06/04 02:44:04;;;;;;;54.55;38.33;;;18.80;90.50;;;;;;5072014;28;20490;-78
2021/06/04 02:46:34;;;;;;;55.78;38.25;;;18.80;90.50;;;;;;5071168;28;20019;-78
2021/06/04 02:49:01;;;;;;;56.03;38.78;;;18.80;90.60;;;;;;5073364;28;20089;-78
2021/06/04 02:51:41;;;;;;;53.22;38.45;;;18.70;90.90;;;;;;5072057;28;20536;-79
2021/06/04 02:54:12;;;;;;;54.58;37.05;;;18.70;90.70;;;;;;5073658;28;20031;-79
2021/06/04 02:56:46;;;;;;;54.05;37.78;;;18.70;90.70;;;;;;5071841;28;20642;-78
2021/06/04 02:59:18;;;;;;;52.53;38.70;;;18.60;90.80;;;;;;5073327;28;20020;-78
2021/06/04 03:02:03;;;;;;;51.92;37.97;;;18.70;90.80;;;;;;5072050;28;20145;-78
2021/06/04 03:04:33;;;;;;;54.70;37.92;;;18.70;90.90;;;;;;5071886;28;20021;-79
2021/06/04 03:07:03;;;;;;;58.90;38.08;;;18.60;90.90;;;;;;5073288;28;20017;-79
2021/06/04 03:09:36;;;;;;;52.70;36.80;;;18.60;90.90;;;;;;5073165;28;20063;-79
2021/06/04 03:12:16;;;;;;;49.83;37.10;;;18.60;91.00;;;;;;5071828;28;20052;-78
2021/06/04 03:14:44;;;;;;;52.90;36.65;;;18.60;91.00;;;;;;5072431;28;20471;-78
2021/06/04 03:17:11;;;;;;;54.00;38.75;;;18.60;91.00;;;;;;5072054;28;20056;-79
2021/06/04 03:19:38;;;;;;;57.85;38.65;;;18.50;91.00;;;;;;5074176;28;20036;-78
2021/06/04 03:22:15;;;;;;;58.22;37.20;;;18.50;91.10;;;;;;5073776;28;20034;-78
2021/06/04 03:24:43;;;;;;;53.58;37.92;;;18.50;91.10;;;;;;5073111;28;20107;-78
2021/06/04 03:27:11;;;;;;;49.08;35.15;;;18.40;91.10;;;;;;5072817;28;20035;-77
2021/06/04 03:29:37;;;;;;;58.08;39.58;;;18.40;91.20;;;;;;5072405;28;20472;-79
2021/06/04 03:32:08;;;;;;;57.63;40.03;;;18.40;91.30;;;;;;5055291;28;20020;-79
2021/06/04 03:34:36;;;;;;;56.38;39.08;;;18.30;91.20;;;;;;5073181;28;20090;-79
2021/06/04 03:37:02;;;;;;;51.13;36.60;;;18.30;91.30;;;;;;5071949;28;20047;-79
2021/06/04 03:39:33;;;;;;;52.58;36.70;;;18.20;91.30;;;;;;5071673;28;20047;-79
2021/06/04 03:42:00;;;;;;;55.30;38.42;;;18.30;91.50;;;;;;5071663;28;20016;-79
2021/06/04 03:44:28;;;;;;;54.42;37.13;;;18.20;91.50;;;;;;5071473;28;20025;-79
2021/06/04 03:46:54;;;;;;;47.88;35.78;;;18.20;91.50;;;;;;5071493;28;20118;-79
2021/06/04 03:49:22;;;;;;;51.17;36.92;;;18.20;91.60;;;;;;5073175;28;20024;-79
2021/06/04 03:51:51;;;;;;;50.55;36.22;;;18.20;91.60;;;;;;5071464;28;20020;-78
2021/06/04 03:54:25;;;;;;;53.10;37.72;;;18.20;91.70;;;;;;5071400;28;20084;-78
2021/06/04 03:56:51;;;;;;;49.83;36.00;;;18.20;91.80;;;;;;5073017;28;20050;-78
2021/06/04 03:59:17;;;;;;;50.72;37.42;;;18.30;91.80;;;;;;5076510;28;20074;-78
2021/06/04 04:01:54;;;;;;;50.75;36.85;;;18.30;91.90;;;;;;5041034;28;20029;-78
2021/06/04 04:04:21;;;;;;;58.83;39.13;;;18.30;91.90;;;;;;5076073;28;20063;-79
2021/06/04 04:06:46;;;;;;;53.53;37.85;;;18.20;92.00;;;;;;5061824;28;20477;-79
2021/06/04 04:09:13;;;;;;;57.95;39.30;;;18.20;92.00;;;;;;5056355;28;20027;-78
2021/06/04 04:11:40;;;;;;;51.38;37.78;;;18.20;92.00;;;;;;5038306;28;20032;-78
2021/06/04 04:14:07;;;;;;;55.75;38.00;;;18.20;92.00;;;;;;5038183;28;20031;-78
2021/06/04 04:16:33;;;;;;;52.25;39.83;;;18.20;92.00;;;;;;5054651;28;20075;-78
2021/06/04 04:18:59;;;;;;;51.45;36.60;;;18.20;92.00;;;;;;5038333;28;20382;-78
2021/06/04 04:21:26;;;;;;;51.35;38.17;;;18.10;92.00;;;;;;5056187;28;20111;-78
2021/06/04 04:23:58;;;;;;;56.13;39.10;;;18.20;92.00;;;;;;5056063;28;20033;-78
2021/06/04 04:26:29;;;;;;;55.33;38.58;;;18.10;92.30;;;;;;5054705;28;20108;-78
2021/06/04 04:28:55;;;;;;;55.17;37.08;;;18.10;92.00;;;;;;5054626;28;20534;-78
2021/06/04 04:31:28;;;;;;;50.50;36.83;;;18.10;92.00;;;;;;5056303;28;20033;-78
2021/06/04 04:33:55;;;;;;;56.08;39.70;;;18.10;92.00;;;;;;5054550;28;20131;-79
2021/06/04 04:36:25;;;;;;;51.58;36.05;;;18.10;92.00;;;;;;5037878;28;20143;-79
2021/06/04 04:38:50;;;;;;;53.47;38.22;;;18.10;92.00;;;;;;5054351;28;20044;-79
2021/06/04 04:41:16;;;;;;;56.30;38.60;;;18.10;92.10;;;;;;5054482;28;20426;-80
2021/06/04 04:43:46;;;;;;;50.38;37.63;;;18.00;92.10;;;;;;5055509;28;20033;-80
2021/06/04 04:46:14;;;;;;;54.90;38.20;;;18.00;92.20;;;;;;5054328;28;20028;-80
2021/06/04 04:48:40;;;;;;;52.80;38.40;;;18.00;92.30;;;;;;5054244;28;20029;-79
2021/06/04 04:51:07;;;;;;;52.75;37.08;;;17.90;92.40;;;;;;5068395;28;20094;-79
2021/06/04 04:53:33;;;;;;;52.30;36.13;;;18.00;92.50;;;;;;5074049;28;20484;-80
2021/06/04 04:55:59;;;;;;;53.78;37.65;;;18.00;92.50;;;;;;5073991;28;20089;-76
2021/06/04 04:58:25;;;;;;;53.60;37.92;;;18.00;92.50;;;;;;5075412;28;20480;-80
2021/06/04 05:00:51;;;;;;;52.78;38.40;;;17.90;92.60;;;;;;5074122;28;20404;-79
2021/06/04 05:03:21;;;;;;;52.85;39.55;;;18.00;92.60;;;;;;5057215;28;20025;-80
2021/06/04 05:05:47;;;;;;;50.95;37.17;;;18.00;92.60;;;;;;5075823;28;20027;-80
2021/06/04 05:08:13;;;;;;;51.90;37.80;;;18.00;92.60;;;;;;5057305;28;20149;-80
2021/06/04 05:10:39;;;;;;;46.00;35.38;;;17.90;92.60;;;;;;5039925;28;20021;-80
2021/06/04 05:13:06;;;;;;;49.47;37.25;;;18.00;92.70;;;;;;5073899;28;20037;-79
2021/06/04 05:15:35;;;;;;;45.78;35.28;;;18.00;92.60;;;;;;5074968;28;20058;-79
2021/06/04 05:18:00;;;;;;;47.28;35.67;;;18.10;92.60;;;;;;5074155;28;20116;-79
2021/06/04 05:20:27;;;;;;;44.55;33.28;;;18.10;92.50;;;;;;5057727;28;20216;-80
2021/06/04 05:22:54;;;;;;;45.53;33.22;;;18.10;92.40;;;;;;5073779;28;20024;-79
2021/06/04 05:25:23;;;;;;;38.67;30.02;;;18.20;92.40;;;;;;5073720;28;20021;-79
2021/06/04 05:27:51;;;;;;;38.60;29.08;;;18.20;92.30;;;;;;5074790;28;20147;-79
2021/06/04 05:30:24;;;;;;;37.13;29.90;;;18.20;92.20;;;;;;5074777;28;20025;-79
2021/06/04 05:32:49;;;;;;;40.67;31.02;;;18.30;92.10;;;;;;5061517;28;20029;-79
2021/06/04 05:35:15;;;;;;;42.72;31.20;;;18.30;92.00;;;;;;5063940;28;20035;-79
2021/06/04 05:37:41;;;;;;;42.47;29.42;;;18.30;92.00;;;;;;5067838;28;20180;-79
2021/06/04 05:40:14;;;;;;;39.80;28.40;;;18.40;91.90;;;;;;5056510;28;20116;-79
2021/06/04 05:42:40;;;;;;;40.40;27.42;;;18.40;91.80;;;;;;5073117;28;20056;-79
2021/06/04 05:45:08;;;;;;;39.03;27.65;;;18.40;91.60;;;;;;5067615;28;20017;-79
2021/06/04 05:47:34;;;;;;;35.30;25.58;;;18.40;91.50;;;;;;5073624;28;20056;-79
2021/06/04 05:50:00;;;;;;;33.17;24.33;;;18.40;91.30;;;;;;5073778;28;20106;-79
2021/06/04 05:52:25;;;;;;;35.05;25.05;;;18.50;91.20;;;;;;5069249;28;20021;-78
2021/06/04 05:54:51;;;;;;;36.40;25.85;;;18.50;91.10;;;;;;5053127;28;20036;-78
2021/06/04 05:57:17;;;;;;;34.63;24.20;;;18.50;91.10;;;;;;5036282;28;20370;-78
2021/06/04 05:59:44;;;;;;;39.85;26.38;;;18.50;91.00;;;;;;5036343;28;20047;-79
2021/06/04 06:02:10;;;;;;;36.60;27.85;;;18.60;90.90;;;;;;5053286;28;20507;-79
2021/06/04 06:04:38;;;;;;;36.50;25.52;;;18.60;90.80;;;;;;5052614;28;20385;-78
2021/06/04 06:07:04;;;;;;;38.25;25.30;;;18.60;90.70;;;;;;5054429;28;20013;-80
2021/06/04 06:09:30;;;;;;;33.03;25.10;;;18.70;90.60;;;;;;5052563;28;20128;-80
2021/06/04 06:11:55;;;;;;;29.95;23.25;;;18.70;90.50;;;;;;5019519;28;20087;-79
2021/06/04 06:14:21;;;;;;;35.90;22.90;;;18.80;90.60;;;;;;5053714;28;20036;-80
2021/06/04 06:16:47;;;;;;;30.92;23.08;;;18.90;90.50;;;;;;5036020;28;20037;-80
2021/06/04 06:19:15;;;;;;;31.67;23.73;;;19.00;90.30;;;;;;5052909;28;20119;-80
2021/06/04 06:21:44;;;;;;;32.70;23.52;;;19.00;90.10;;;;;;5053593;28;20143;-80
2021/06/04 06:24:11;;;;;;;29.33;22.50;;;19.10;90.00;;;;;;5053523;28;20024;-80
2021/06/04 06:26:37;;;;;;;31.13;23.00;;;19.20;89.70;;;;;;5052501;28;20083;-79
2021/06/04 06:29:06;;;;;;;29.33;21.65;;;19.30;89.50;;;;;;5052555;28;20595;-79
2021/06/04 06:31:36;;;;;;;29.08;22.27;;;19.30;88.90;;;;;;5058502;28;20031;-79
2021/06/04 06:34:04;;;;;;;29.50;22.25;;;19.30;88.50;;;;;;5073737;28;20103;-80
2021/06/04 06:36:32;;;;;;;26.35;20.30;;;19.40;88.30;;;;;;5059429;28;20173;-79
2021/06/04 06:39:03;;;;;;;27.00;21.05;;;19.40;88.00;;;;;;5072489;28;20087;-79
2021/06/04 06:41:29;;;;;;;29.23;20.55;;;19.40;87.70;;;;;;5072266;28;20448;-81
2021/06/04 06:43:55;;;;;;;27.00;19.80;;;19.40;87.50;;;;;;5072161;28;20465;-81
2021/06/04 06:46:23;;;;;;;26.92;20.40;;;19.50;87.90;;;;;;5055550;28;20027;-81
2021/06/04 06:48:49;;;;;;;27.88;21.08;;;19.60;87.20;;;;;;5055854;28;20396;-81
2021/06/04 06:51:15;;;;;;;27.65;19.70;;;19.60;87.10;;;;;;5073252;28;20464;-82
2021/06/04 06:53:42;;;;;;;25.95;19.45;;;19.70;87.00;;;;;;5072100;28;20058;-81
2021/06/04 06:56:10;;;;;;;26.27;20.02;;;19.70;87.00;;;;;;5073337;28;20159;-81
2021/06/04 06:58:37;;;;;;;25.48;20.80;;;19.80;86.80;;;;;;5072157;28;20078;-81
2021/06/04 07:01:05;;;;;;;23.00;18.88;;;19.90;86.60;;;;;;5055721;28;20035;-81
2021/06/04 07:03:33;;;;;;;26.30;19.25;;;19.90;86.50;;;;;;5072089;28;20028;-81
2021/06/04 07:06:06;;;;;;;26.10;20.23;;;20.00;86.20;;;;;;5072088;28;20025;-81
2021/06/04 07:08:32;;;;;;;25.15;18.10;;;20.10;86.20;;;;;;5072419;28;20027;-81
2021/06/04 07:10:58;;;;;;;27.85;19.15;;;20.20;85.90;;;;;;5073206;28;20024;-81
2021/06/04 07:13:26;;;;;;;30.35;20.08;;;20.30;85.80;;;;;;5073591;28;20082;-81
2021/06/04 07:15:55;;;;;;;24.40;17.85;;;20.50;85.80;;;;;;5073236;28;20025;-81
2021/06/04 07:18:21;;;;;;;23.13;17.20;;;20.60;85.60;;;;;;5073273;28;20024;-82
2021/06/04 07:20:47;;;;;;;22.25;18.27;;;20.80;85.50;;;;;;5038969;28;20502;-81
2021/06/04 07:23:13;;;;;;;24.20;17.60;;;20.90;85.20;;;;;;5071742;28;20115;-81
2021/06/04 07:25:43;;;;;;;24.70;17.65;;;21.00;84.50;;;;;;5055279;28;20029;-81
2021/06/04 07:28:11;;;;;;;23.13;17.13;;;21.10;84.00;;;;;;5071791;28;20380;-81
2021/06/04 07:30:40;;;;;;;22.83;16.77;;;21.30;83.60;;;;;;5072176;28;20150;-81
2021/06/04 07:33:21;;;;;;;22.50;16.20;;;21.40;83.30;;;;;;5075829;28;20103;-81
2021/06/04 07:35:47;;;;;;;21.10;14.98;;;21.50;83.00;;;;;;5075901;28;20021;-81
2021/06/04 07:38:13;;;;;;;22.27;15.52;;;21.60;82.20;;;;;;5075713;28;20076;-81
2021/06/04 07:40:40;;;;;;;18.55;15.05;;;21.70;81.60;;;;;;5075679;28;20060;-76
2021/06/04 07:43:10;;;;;;;17.80;13.30;;;21.80;81.30;;;;;;5075644;28;20036;-78
2021/06/04 07:45:38;;;;;;;19.33;13.65;;;21.90;80.80;;;;;;5060500;28;20017;-78
2021/06/04 07:48:05;;;;;;;17.25;13.02;;;22.00;80.30;;;;;;5057339;28;20104;-78
2021/06/04 07:50:31;;;;;;;16.08;11.60;;;22.10;79.90;;;;;;5055582;28;20175;-78
2021/06/04 07:52:57;;;;;;;13.60;9.98;;;22.20;79.10;;;;;;5055900;28;20441;-78
2021/06/04 07:55:25;;;;;;;13.23;9.73;;;22.30;78.50;;;;;;5042083;28;20043;-79
2021/06/04 07:57:51;;;;;;;13.45;9.43;;;22.30;77.60;;;;;;5075371;28;20388;-79
2021/06/04 08:00:24;;;;;;;18.17;10.45;;;22.40;76.70;;;;;;5038891;28;20021;-78
2021/06/04 08:02:50;;;;;;;;;;;22.50;76.10;;;;;;5055743;28;20060;-78
2021/06/04 08:05:16;;;;;;;14.63;9.57;;;22.50;75.50;;;;;;5071922;28;19912;-79
2021/06/04 08:07:43;;;;;;;13.73;9.45;;;22.60;75.20;;;;;;5056643;28;20445;-78
2021/06/04 08:10:10;;;;;;;14.15;9.43;;;22.60;75.00;;;;;;5060490;28;20028;-78
2021/06/04 08:12:37;;;;;;;14.40;10.13;;;22.70;74.40;;;;;;5075120;28;20063;-78
2021/06/04 08:15:14;;;;;;;12.00;8.88;;;22.70;73.70;;;;;;5076723;28;20574;-78
2021/06/04 08:17:41;;;;;;;14.05;9.68;;;22.90;73.00;;;;;;5075528;28;20360;-79
2021/06/04 08:20:10;;;;;;;12.75;9.27;;;23.00;72.80;;;;;;5075530;28;20024;-78
2021/06/04 08:22:43;;;;;;;15.02;10.82;;;23.20;72.50;;;;;;5064984;28;20033;-79
2021/06/04 08:25:11;;;;;;;14.65;9.88;;;23.20;71.90;;;;;;5056201;28;20032;-79
2021/06/04 08:27:38;;;;;;;16.75;11.43;;;23.30;71.30;;;;;;5056464;28;20064;-79
2021/06/04 08:30:05;;;;;;;20.90;13.80;;;23.30;71.30;;;;;;5054717;28;20468;-78
2021/06/04 08:32:32;;;;;;;17.77;13.82;;;23.40;72.00;;;;;;5056081;28;20036;-78
2021/06/04 08:34:58;;;;;;;18.40;13.63;;;23.40;72.40;;;;;;5055093;28;20420;-79
2021/06/04 08:37:24;;;;;;;19.05;13.68;;;23.50;72.50;;;;;;5055918;28;20025;-79
2021/06/04 08:39:49;;;;;;;18.40;11.73;;;23.60;72.50;;;;;;5056049;28;20045;-79
2021/06/04 08:42:27;;;;;;;11.38;8.05;;;23.60;72.40;;;;;;5038704;28;20017;-79
2021/06/04 08:44:58;;;;;;;16.83;9.15;;;23.70;71.60;;;;;;5054523;28;20427;-78
2021/06/04 08:47:27;;;;;;;11.75;7.22;;;23.70;71.00;;;;;;5055980;28;20025;-78
2021/06/04 08:50:30;;;;;;;11.98;7.30;;;23.80;70.60;;;;;;5037801;28;20103;-79
2021/06/04 08:53:11;;;;;;;11.30;8.57;;;23.90;69.60;;;;;;5043771;28;20044;-79
2021/06/04 08:55:48;;;;;;;9.10;6.90;;;23.80;69.30;;;;;;5054469;28;20116;-79
2021/06/04 08:58:43;;;;;;;11.75;8.00;;;23.80;69.40;;;;;;5055412;28;20025;-79
2021/06/04 09:01:18;;;;;;;14.95;8.52;;;23.80;69.50;;;;;;5054376;28;20036;-78
2021/06/04 09:03:55;;;;;;;11.43;7.25;;;23.90;69.30;;;;;;5054212;28;20021;-79
2021/06/04 09:06:40;;;;;;;12.02;7.38;;;23.90;69.30;;;;;;5054170;28;20082;-79
2021/06/04 09:09:11;;;;;;;11.18;7.80;;;24.00;69.20;;;;;;5054076;28;20491;-79
2021/06/04 09:11:39;;;;;;;9.43;7.38;;;24.00;68.90;;;;;;5053958;28;20022;-78
2021/06/04 09:14:07;;;;;;;13.20;7.85;;;24.00;68.90;;;;;;5053984;28;20079;-80
2021/06/04 09:16:44;;;;;;;8.18;6.22;;;24.10;69.00;;;;;;5054195;28;20025;-79
2021/06/04 09:19:22;;;;;;;11.25;7.35;;;24.20;69.10;;;;;;5053893;28;20024;-79
2021/06/04 09:21:51;;;;;;;11.57;6.82;;;24.30;69.00;;;;;;5053735;28;20033;-80
2021/06/04 09:24:29;;;;;;;11.15;7.93;;;24.30;68.60;;;;;;5037439;28;20032;-79
2021/06/04 09:26:55;;;;;;;10.85;7.68;;;24.40;68.40;;;;;;5061507;28;20161;-79
2021/06/04 09:29:27;;;;;;;10.82;7.72;;;24.40;68.30;;;;;;5073851;28;20083;-79
2021/06/04 09:32:16;;;;;;;13.82;7.68;;;24.40;68.30;;;;;;5074900;28;20028;-79
2021/06/04 09:34:42;;;;;;;9.35;7.15;;;24.40;68.40;;;;;;5075011;28;20122;-79
2021/06/04 09:37:23;;;;;;;11.68;7.43;;;24.50;68.60;;;;;;5074461;28;20068;-81
2021/06/04 09:40:09;;;;;;;11.07;7.72;;;24.60;68.40;;;;;;5073366;28;20053;-79
2021/06/04 09:42:46;;;;;;;11.00;7.32;;;24.80;68.30;;;;;;5073432;28;20036;-79
2021/06/04 09:45:14;;;;;;;11.75;7.85;;;25.00;68.40;;;;;;5073383;28;20017;-78
2021/06/04 09:47:42;;;;;;;11.25;7.20;;;25.10;68.00;;;;;;5074549;28;20020;-79
2021/06/04 09:50:31;;;;;;;10.88;7.13;;;25.20;67.60;;;;;;5073205;28;20073;-79
2021/06/04 09:53:14;;;;;;;9.93;6.18;;;25.30;67.20;;;;;;5073051;28;20058;-79
2021/06/04 09:55:43;;;;;;;7.75;5.78;;;25.40;67.00;;;;;;5073823;28;20063;-79
2021/06/04 09:58:21;;;;;;;11.00;5.95;;;25.60;67.00;;;;;;5073109;28;20365;-79
2021/06/04 10:01:11;;;;;;;8.88;5.43;;;25.60;66.50;;;;;;5072930;28;20177;-78
2021/06/04 10:03:40;;;;;;;10.60;6.63;;;25.80;66.30;;;;;;5074202;28;20033;-78
2021/06/04 10:06:06;;;;;;;8.40;6.13;;;25.90;65.90;;;;;;5074161;28;20020;-79
2021/06/04 10:08:44;;;;;;;11.23;6.43;;;25.90;65.80;;;;;;5074283;28;20017;-78
2021/06/04 10:11:22;;;;;;;10.40;7.00;;;25.90;65.70;;;;;;5073052;28;20021;-79
2021/06/04 10:13:53;;;;;;;11.13;6.25;;;26.00;66.00;;;;;;5073011;28;20017;-79
2021/06/04 10:19:23;;;;;;;10.57;6.97;;;26.10;65.30;;;;;;5074133;28;20028;-79
2021/06/04 10:22:08;;;;;;;10.98;7.32;;;26.20;64.80;;;;;;5073842;28;20029;-78
2021/06/04 10:24:41;;;;;;;13.63;7.00;;;26.20;64.50;;;;;;5073823;28;20488;-79
2021/06/04 10:27:11;;;;;;;9.20;5.93;;;26.20;64.00;;;;;;5073947;28;20070;-78
2021/06/04 10:29:38;;;;;;;8.27;5.93;;;26.40;63.70;;;;;;5073950;28;20044;-79
2021/06/04 10:32:09;;;;;;;7.93;5.78;;;26.60;63.40;;;;;;5072620;28;20112;-78
2021/06/04 10:35:19;;;;;;;10.32;5.30;;;26.80;62.80;;;;;;5056126;28;20017;-79
2021/06/04 10:37:54;;;;;;;11.02;5.78;;;27.10;62.00;;;;;;5051999;28;20028;-79
2021/06/04 10:40:25;;;;;;;10.18;5.57;;;27.30;62.00;;;;;;5059429;28;20102;-80
2021/06/04 10:42:54;;;;;;;6.57;4.93;;;27.50;61.70;;;;;;5052762;28;20366;-79
2021/06/04 10:45:33;;;;;;;9.25;5.43;;;27.70;61.50;;;;;;5052326;28;20024;-79
2021/06/04 10:48:22;;;;;;;8.30;4.55;;;27.80;61.50;;;;;;5053475;28;20025;-78
2021/06/04 10:51:11;;;;;;;9.80;4.63;;;28.10;61.20;;;;;;5052271;28;20041;-79
2021/06/04 10:53:55;;;;;;;6.65;4.47;;;28.20;60.10;;;;;;5052366;28;20021;-79
2021/06/04 10:56:43;;;;;;;6.78;4.32;;;28.50;59.50;;;;;;5053277;28;20106;-79
2021/06/04 10:59:29;;;;;;;8.85;4.22;;;28.80;59.20;;;;;;5053320;28;20029;-79
2021/06/04 11:02:11;;;;;;;7.10;3.97;;;29.00;58.80;;;;;;5053486;28;20021;-79
2021/06/04 11:04:58;;;;;;;9.88;4.10;;;29.50;58.10;;;;;;5051889;28;20032;-81
2021/06/04 11:07:49;;;;;;;5.20;3.80;;;30.20;57.70;;;;;;5058774;28;20028;-79
2021/06/04 11:10:28;;;;;;;7.47;4.05;;;31.10;55.90;;;;;;5065499;28;20026;-80
2021/06/04 11:13:17;;;;;;;6.55;4.03;;;31.70;54.40;;;;;;5052234;28;20048;-80
2021/06/04 11:16:08;;;;;;;6.72;3.75;;;32.30;53.40;;;;;;5056401;28;20422;-79
2021/06/04 11:18:43;;;;;;;5.55;4.07;;;32.40;51.70;;;;;;5069038;28;20465;-79
2021/06/04 11:21:34;;;;;;;9.38;4.57;;;32.20;51.00;;;;;;5052928;28;20430;-79
2021/06/04 11:24:14;;;;;;;5.95;4.13;;;32.40;50.40;;;;;;5063937;28;20028;-80
2021/06/04 11:26:44;;;;;;;6.10;4.13;;;33.00;51.00;;;;;;5051547;28;20465;-80
2021/06/04 11:29:15;;;;;;;5.82;4.13;;;33.60;50.00;;;;;;5061312;28;20037;-80
2021/06/04 11:31:53;;;;;;;5.72;4.00;;;34.20;49.30;;;;;;5066488;28;20015;-78
2021/06/04 11:34:41;;;;;;;6.93;3.83;;;34.90;49.00;;;;;;5051720;28;20055;-78
2021/06/04 11:37:11;;;;;;;6.60;4.13;;;35.40;47.20;;;;;;5035371;28;20048;-80
2021/06/04 11:39:41;;;;;;;9.02;4.10;;;36.00;47.10;;;;;;5052989;28;20121;-79
2021/06/04 11:42:19;;;;;;;4.60;3.05;;;36.50;45.90;;;;;;5051960;28;20111;-80
2021/06/04 11:44:49;;;;;;;5.35;2.92;;;37.20;44.30;;;;;;5051526;28;20036;-84
2021/06/04 11:47:17;;;;;;;4.05;2.42;;;37.40;44.30;;;;;;5051907;28;20021;-79
2021/06/04 11:49:52;;;;;;;4.30;2.85;;;37.40;43.40;;;;;;5052838;28;20043;-81
2021/06/04 11:52:22;;;;;;;6.60;3.10;;;37.40;42.30;;;;;;5052911;28;20032;-79
2021/06/04 11:54:49;;;;;;;5.63;3.55;;;37.30;42.10;;;;;;5057695;28;20120;-80
2021/06/04 11:57:37;;;;;;;9.63;4.53;;;37.10;41.90;;;;;;5060571;28;20493;-80
2021/06/04 12:00:28;;;;;;;7.93;4.68;;;36.80;41.90;;;;;;5051569;28;20025;-80
2021/06/04 12:03:09;;;;;;;7.47;4.32;;;36.40;42.20;;;;;;5052754;28;20057;-81
2021/06/04 12:05:51;;;;;;;4.78;3.55;;;36.10;42.50;;;;;;5051368;28;20037;-81
2021/06/04 12:08:29;;;;;;;5.05;3.00;;;35.70;42.80;;;;;;5069370;28;20020;-81
2021/06/04 12:10:54;;;;;;;6.22;3.80;;;35.50;42.90;;;;;;5071640;28;20117;-81
2021/06/04 12:13:31;;;;;;;5.85;3.70;;;35.40;42.90;;;;;;5070895;28;20063;-84
2021/06/04 12:16:26;;;;;;;6.63;4.00;;;35.30;42.80;;;;;;5055416;28;20021;-81
2021/06/04 12:19:05;;;;;;;7.35;3.78;;;35.20;42.70;;;;;;5073199;28;20448;-79
2021/06/04 12:21:44;;;;;;;5.82;4.28;;;35.00;42.90;;;;;;5074860;28;20123;-80
2021/06/04 12:24:21;;;;;;;5.75;4.10;;;34.90;43.20;;;;;;5074611;28;20369;-80
2021/06/04 12:27:10;;;;;;;5.78;4.40;;;34.70;43.50;;;;;;5076789;28;20524;-80
2021/06/04 12:29:46;;;;;;;7.50;3.95;;;34.60;43.70;;;;;;5074740;28;20495;-80
2021/06/04 12:32:17;;;;;;;9.02;5.15;;;34.70;43.90;;;;;;5075985;28;20568;-82
2021/06/04 12:34:49;;;;;;;9.18;5.22;;;34.80;43.90;;;;;;5074672;28;20025;-79
2021/06/04 12:37:18;;;;;;;6.65;5.45;;;34.70;43.80;;;;;;5074883;28;20029;-80
2021/06/04 12:39:49;;;;;;;8.75;6.40;;;34.60;43.80;;;;;;5075533;28;20055;-83
2021/06/04 12:42:24;;;;;;;8.27;5.22;;;34.30;44.00;;;;;;5074558;28;20502;-84
2021/06/04 12:45:21;;;;;;;6.88;5.32;;;34.20;44.60;;;;;;5075957;28;20476;-80
2021/06/04 12:48:07;;;;;;;7.38;6.32;;;34.30;44.70;;;;;;5073933;28;20021;-78
2021/06/04 12:50:37;;;;;;;7.85;5.50;;;34.30;44.70;;;;;;5075864;28;20070;-81
2021/06/04 12:53:14;;;;;;;8.98;5.90;;;34.50;44.50;;;;;;5056546;28;20045;-80
2021/06/04 12:55:43;;;;;;;8.80;6.18;;;34.70;44.30;;;;;;5071402;28;20051;-80
2021/06/04 12:58:12;;;;;;;6.82;5.45;;;34.90;44.30;;;;;;5054582;28;20032;-80
2021/06/04 13:00:38;;;;;;;5.25;4.65;;;35.10;44.50;;;;;;5071161;28;20025;-80
2021/06/04 13:03:27;;;;;;;9.38;4.90;;;35.40;44.30;;;;;;5070909;28;20078;-80